Time;durP1;ratioP1;P1;durP2;ratioP2;P2;SDS_P1;SDS_P2;PMS_P1;PMS_P2;Temp;Humidity;BMP_temperature;BMP_pressure;BME280_temperature;BME280_humidity;BME280_pressure;Samples;Min_cycle;Max_cycle;Signal;HPM_P1;HPM_P2
2021/09/16 00:00:22;;;;;;;2.47;1.00;;;15.60;99.90;;;;;;5110127;28;20023;-40
2021/09/16 00:02:47;;;;;;;4.90;1.00;;;15.60;99.90;;;;;;5109827;28;20077;-40
2021/09/16 00:05:13;;;;;;;3.75;1.00;;;15.60;99.90;;;;;;5108208;28;20471;-36
2021/09/16 00:07:39;;;;;;;1.38;0.93;;;15.50;99.90;;;;;;5108317;28;20024;-39
2021/09/16 00:10:06;;;;;;;2.28;1.05;;;15.60;99.90;;;;;;5108632;28;20012;-36
2021/09/16 00:12:34;;;;;;;3.42;1.23;;;15.50;99.90;;;;;;5108571;28;20535;-37
2021/09/16 00:15:03;;;;;;;6.10;1.98;;;15.40;99.90;;;;;;5107206;28;20046;-33
2021/09/16 00:17:32;;;;;;;4.25;1.20;;;15.40;99.90;;;;;;5108330;28;20153;-39
2021/09/16 00:19:57;;;;;;;3.03;1.27;;;15.40;99.90;;;;;;5107917;28;20027;-40
2021/09/16 00:22:23;;;;;;;2.92;0.95;;;15.40;99.90;;;;;;5107888;28;20376;-39
2021/09/16 00:24:48;;;;;;;1.80;0.98;;;15.40;99.90;;;;;;5108224;28;20043;-39
2021/09/16 00:27:14;;;;;;;3.05;1.20;;;15.40;99.90;;;;;;5108255;28;20022;-40
2021/09/16 00:29:42;;;;;;;2.88;1.20;;;15.30;99.90;;;;;;5107782;28;20091;-37
2021/09/16 00:32:09;;;;;;;2.50;1.15;;;15.30;99.90;;;;;;5107946;28;20031;-37
2021/09/16 00:34:35;;;;;;;2.72;1.00;;;15.30;99.90;;;;;;5109493;28;20042;-37
2021/09/16 00:37:00;;;;;;;2.60;1.10;;;15.30;99.90;;;;;;5107985;28;20042;-33
2021/09/16 00:39:26;;;;;;;2.10;0.93;;;15.30;99.90;;;;;;5109837;28;20024;-33
2021/09/16 00:41:51;;;;;;;2.28;0.90;;;15.20;99.90;;;;;;5109228;28;20490;-35
2021/09/16 00:44:17;;;;;;;2.97;1.20;;;15.20;99.90;;;;;;5108741;28;20042;-38
2021/09/16 00:46:42;;;;;;;2.78;1.48;;;15.20;99.90;;;;;;5109731;28;20024;-33
2021/09/16 00:49:08;;;;;;;2.40;1.10;;;15.20;99.90;;;;;;5109884;28;20107;-35
2021/09/16 00:51:36;;;;;;;3.80;1.17;;;15.20;99.90;;;;;;5107859;28;20397;-38
2021/09/16 00:54:02;;;;;;;2.85;1.10;;;15.20;99.90;;;;;;5107821;28;20747;-36
2021/09/16 00:56:29;;;;;;;5.15;1.23;;;15.20;99.90;;;;;;5110671;28;20027;-38
2021/09/16 00:58:58;;;;;;;2.25;1.02;;;15.30;99.90;;;;;;5112472;28;20122;-40
2021/09/16 01:01:23;;;;;;;4.88;1.08;;;15.30;99.90;;;;;;5112575;28;20653;-39
2021/09/16 01:03:49;;;;;;;3.33;0.90;;;15.40;99.90;;;;;;5111899;28;20016;-38
2021/09/16 01:06:16;;;;;;;4.53;1.25;;;15.40;99.90;;;;;;5112768;28;20034;-38
2021/09/16 01:08:42;;;;;;;3.92;1.05;;;15.50;99.90;;;;;;5109704;28;20012;-38
2021/09/16 01:11:08;;;;;;;5.00;1.20;;;15.50;99.90;;;;;;5112353;28;20076;-39
2021/09/16 01:13:34;;;;;;;4.40;1.10;;;15.50;99.90;;;;;;5113734;28;20016;-38
2021/09/16 01:16:00;;;;;;;4.57;1.00;;;15.60;99.90;;;;;;5113000;28;20044;-38
2021/09/16 01:18:26;;;;;;;4.63;1.20;;;15.60;99.90;;;;;;5113357;28;20092;-36
2021/09/16 01:20:52;;;;;;;3.42;1.17;;;15.50;99.90;;;;;;5113540;28;20019;-36
2021/09/16 01:23:17;;;;;;;4.03;0.98;;;15.50;99.90;;;;;;5113842;28;20093;-38
2021/09/16 01:25:43;;;;;;;3.45;0.90;;;15.50;99.90;;;;;;5113514;28;20023;-36
2021/09/16 01:28:08;;;;;;;3.00;0.75;;;15.40;99.90;;;;;;5113208;28;20118;-37
2021/09/16 01:30:34;;;;;;;2.08;0.80;;;15.40;99.90;;;;;;5113546;28;20027;-38
2021/09/16 01:33:00;;;;;;;2.15;0.73;;;15.40;99.90;;;;;;5112908;28;20015;-39
2021/09/16 01:35:28;;;;;;;1.90;0.90;;;15.40;99.90;;;;;;5114027;28;20394;-39
2021/09/16 01:37:55;;;;;;;2.42;0.80;;;15.30;99.90;;;;;;5111630;28;20433;-39
2021/09/16 01:40:24;;;;;;;2.17;0.90;;;15.30;99.90;;;;;;5090358;28;20497;-41
2021/09/16 01:42:50;;;;;;;1.48;0.90;;;15.30;99.90;;;;;;5112942;28;20058;-38
2021/09/16 01:45:18;;;;;;;1.95;0.70;;;15.30;99.90;;;;;;5113503;28;20055;-40
2021/09/16 01:47:45;;;;;;;2.80;0.90;;;15.20;99.90;;;;;;5112588;28;20459;-38
2021/09/16 01:50:13;;;;;;;2.03;0.90;;;15.20;99.90;;;;;;5113168;28;20049;-39
2021/09/16 01:52:39;;;;;;;3.03;0.90;;;15.10;99.90;;;;;;5113244;28;20418;-35
2021/09/16 01:55:05;;;;;;;2.10;0.80;;;15.10;99.90;;;;;;5112160;28;20494;-37
2021/09/16 01:57:31;;;;;;;1.55;0.80;;;15.10;99.90;;;;;;5113036;28;20043;-36
2021/09/16 01:59:56;;;;;;;4.07;0.90;;;15.10;99.90;;;;;;5111382;28;20024;-36
2021/09/16 02:02:22;;;;;;;2.42;1.10;;;15.10;99.90;;;;;;5111657;28;20386;-38
2021/09/16 02:04:50;;;;;;;4.25;1.17;;;15.10;99.90;;;;;;5111286;28;20061;-38
2021/09/16 02:07:16;;;;;;;1.92;1.00;;;15.10;99.90;;;;;;5110737;28;20016;-38
2021/09/16 02:09:41;;;;;;;3.85;1.13;;;15.10;99.90;;;;;;5110859;28;20658;-38
2021/09/16 02:12:07;;;;;;;4.82;1.25;;;15.10;99.90;;;;;;5110686;28;20128;-37
2021/09/16 02:14:33;;;;;;;1.42;1.13;;;15.10;99.90;;;;;;5111177;28;21173;-39
2021/09/16 02:16:58;;;;;;;2.67;1.15;;;15.10;99.90;;;;;;5111920;28;20382;-38
2021/09/16 02:19:24;;;;;;;3.10;1.40;;;15.10;99.90;;;;;;5112130;28;20015;-36
2021/09/16 02:21:51;;;;;;;1.80;1.25;;;15.10;99.90;;;;;;5110530;28;20039;-35
2021/09/16 02:24:19;;;;;;;4.85;1.25;;;15.10;99.90;;;;;;5111857;28;20062;-37
2021/09/16 02:26:45;;;;;;;2.58;1.30;;;15.10;99.90;;;;;;5111895;28;20015;-37
2021/09/16 02:29:13;;;;;;;2.83;1.13;;;15.20;99.90;;;;;;5111386;28;20374;-38
2021/09/16 02:31:39;;;;;;;2.38;1.45;;;15.20;99.90;;;;;;5104239;28;20405;-38
2021/09/16 02:34:04;;;;;;;3.67;1.27;;;15.20;99.90;;;;;;5111882;28;20016;-37
2021/09/16 02:36:30;;;;;;;3.75;1.20;;;15.20;99.90;;;;;;5110777;28;20495;-34
2021/09/16 02:38:55;;;;;;;3.28;1.30;;;15.20;99.90;;;;;;5111136;28;20036;-35
2021/09/16 02:41:21;;;;;;;3.47;1.27;;;15.20;99.90;;;;;;5111344;28;20038;-39
2021/09/16 02:43:47;;;;;;;3.05;1.23;;;15.30;99.90;;;;;;5111264;28;20073;-38
2021/09/16 02:46:13;;;;;;;4.30;1.65;;;15.30;99.90;;;;;;5111746;28;20039;-39
2021/09/16 02:48:39;;;;;;;2.78;1.10;;;15.40;99.90;;;;;;5111416;28;20023;-37
2021/09/16 02:51:05;;;;;;;1.67;0.85;;;15.40;99.90;;;;;;5111116;28;20046;-39
2021/09/16 02:53:31;;;;;;;1.73;1.00;;;15.40;99.90;;;;;;5111772;28;20391;-39
2021/09/16 02:55:57;;;;;;;4.47;2.10;;;15.50;99.90;;;;;;5110562;28;20462;-37
2021/09/16 02:58:22;;;;;;;3.28;1.20;;;15.50;99.90;;;;;;5111697;28;20107;-39
2021/09/16 03:00:48;;;;;;;3.30;1.35;;;15.50;99.90;;;;;;5110752;28;20111;-35
2021/09/16 03:03:13;;;;;;;3.80;1.30;;;15.50;99.90;;;;;;5111311;28;20019;-37
2021/09/16 03:05:39;;;;;;;3.80;1.25;;;15.60;99.90;;;;;;5111320;28;20030;-38
2021/09/16 03:08:04;;;;;;;2.63;1.20;;;15.50;99.90;;;;;;5110170;28;20481;-38
2021/09/16 03:10:31;;;;;;;3.13;1.15;;;15.60;99.90;;;;;;5109685;28;20287;-37
2021/09/16 03:12:56;;;;;;;2.70;0.88;;;15.60;99.90;;;;;;5108991;28;20422;-38
2021/09/16 03:15:22;;;;;;;2.28;1.00;;;15.60;99.90;;;;;;5109589;28;20052;-36
2021/09/16 03:17:47;;;;;;;2.47;1.10;;;15.60;99.90;;;;;;5109448;28;20059;-36
2021/09/16 03:20:13;;;;;;;3.15;1.33;;;15.60;99.90;;;;;;5109434;28;20364;-38
2021/09/16 03:22:38;;;;;;;4.80;1.30;;;15.60;99.90;;;;;;5110216;28;20028;-37
2021/09/16 03:25:07;;;;;;;4.28;1.00;;;15.60;99.90;;;;;;5108780;28;20039;-36
2021/09/16 03:27:33;;;;;;;4.20;1.30;;;15.60;99.90;;;;;;5109214;28;20023;-40
2021/09/16 03:29:59;;;;;;;1.48;1.00;;;15.60;99.90;;;;;;5109205;28;20030;-34
2021/09/16 03:32:25;;;;;;;4.00;1.10;;;15.60;99.90;;;;;;5109935;28;20038;-38
2021/09/16 03:34:50;;;;;;;1.65;1.20;;;15.70;99.90;;;;;;5110346;28;20011;-38
2021/09/16 03:37:16;;;;;;;4.43;1.50;;;15.70;99.90;;;;;;5110952;28;20097;-36
2021/09/16 03:39:41;;;;;;;4.10;1.48;;;15.70;99.90;;;;;;5109889;28;20034;-35
2021/09/16 03:42:07;;;;;;;4.82;1.35;;;15.70;99.90;;;;;;5110372;28;20439;-34
2021/09/16 03:44:33;;;;;;;2.30;1.27;;;15.70;99.90;;;;;;5110793;28;20031;-39
2021/09/16 03:47:01;;;;;;;5.55;1.52;;;15.70;99.90;;;;;;5109497;28;20459;-38
2021/09/16 03:49:26;;;;;;;4.10;1.75;;;15.70;99.90;;;;;;5110875;28;20044;-33
2021/09/16 03:51:52;;;;;;;3.00;1.58;;;15.70;99.90;;;;;;5109812;28;20046;-33
2021/09/16 03:54:17;;;;;;;3.58;1.75;;;15.70;99.90;;;;;;5109918;28;20102;-36
2021/09/16 03:56:43;;;;;;;2.88;1.52;;;15.80;99.90;;;;;;5110485;28;20112;-33
2021/09/16 03:59:11;;;;;;;4.68;1.67;;;15.70;99.90;;;;;;5109895;28;20024;-37
2021/09/16 04:01:37;;;;;;;3.88;1.60;;;15.70;99.90;;;;;;5109669;28;20019;-36
2021/09/16 04:04:03;;;;;;;4.43;1.52;;;15.70;99.90;;;;;;5109584;28;20058;-39
2021/09/16 04:06:29;;;;;;;4.70;1.70;;;15.70;99.90;;;;;;5110660;28;20011;-38
2021/09/16 04:08:54;;;;;;;2.72;1.30;;;15.60;99.90;;;;;;5109333;28;20035;-38
2021/09/16 04:11:20;;;;;;;3.30;1.30;;;15.60;99.90;;;;;;5110479;28;20020;-37
2021/09/16 04:13:45;;;;;;;3.00;1.30;;;15.60;99.90;;;;;;5109960;28;20446;-37
2021/09/16 04:16:11;;;;;;;4.00;1.50;;;15.50;99.90;;;;;;5109721;28;20495;-36
2021/09/16 04:18:36;;;;;;;3.60;1.40;;;15.50;99.90;;;;;;5107862;28;21300;-38
2021/09/16 04:21:02;;;;;;;5.53;1.60;;;15.50;99.90;;;;;;5108183;28;20106;-35
2021/09/16 04:23:27;;;;;;;1.33;0.98;;;15.50;99.90;;;;;;5108498;28;20479;-34
2021/09/16 04:25:53;;;;;;;3.53;1.20;;;15.50;99.90;;;;;;5108320;28;20039;-39
2021/09/16 04:28:18;;;;;;;3.00;1.27;;;15.50;99.90;;;;;;5109278;28;20568;-38
2021/09/16 04:30:44;;;;;;;2.13;1.15;;;15.50;99.90;;;;;;5109190;28;20539;-40
2021/09/16 04:33:09;;;;;;;4.30;1.15;;;15.50;99.90;;;;;;5109579;28;20530;-34
2021/09/16 04:35:35;;;;;;;2.90;1.10;;;15.50;99.90;;;;;;5108064;28;20194;-40
2021/09/16 04:38:00;;;;;;;4.07;1.40;;;15.50;99.90;;;;;;5107992;28;20047;-37
2021/09/16 04:40:27;;;;;;;4.55;1.23;;;15.50;99.90;;;;;;5108777;28;20139;-35
2021/09/16 04:42:52;;;;;;;4.55;1.25;;;15.40;99.90;;;;;;5108203;28;20027;-38
2021/09/16 04:45:18;;;;;;;2.35;1.10;;;15.40;99.90;;;;;;5107981;28;20035;-40
2021/09/16 04:47:43;;;;;;;4.82;1.70;;;15.50;99.90;;;;;;5108162;28;20106;-39
2021/09/16 04:50:10;;;;;;;2.75;1.00;;;15.50;99.90;;;;;;5109082;28;20096;-37
2021/09/16 04:52:36;;;;;;;2.65;1.15;;;15.50;99.90;;;;;;5110077;28;20529;-39
2021/09/16 04:55:02;;;;;;;3.63;1.10;;;15.50;99.90;;;;;;5110051;28;20028;-36
2021/09/16 04:57:28;;;;;;;4.30;1.00;;;15.50;99.90;;;;;;5109798;28;20020;-35
2021/09/16 04:59:54;;;;;;;2.92;1.00;;;15.50;99.90;;;;;;5108962;28;20476;-39
2021/09/16 05:02:20;;;;;;;3.20;1.00;;;15.50;99.90;;;;;;5110003;28;20364;-39
2021/09/16 05:04:48;;;;;;;1.75;0.90;;;15.50;99.90;;;;;;5109039;28;20475;-34
2021/09/16 05:07:20;;;;;;;2.22;1.15;;;15.40;99.90;;;;;;5109964;28;20027;-37
2021/09/16 05:09:45;;;;;;;2.50;0.95;;;15.40;99.90;;;;;;5107641;28;20119;-39
2021/09/16 05:12:11;;;;;;;3.78;1.30;;;15.40;99.90;;;;;;5110038;28;20432;-36
2021/09/16 05:14:36;;;;;;;3.30;1.30;;;15.40;99.90;;;;;;5109667;28;20047;-37
2021/09/16 05:17:02;;;;;;;4.60;1.17;;;15.40;99.90;;;;;;5108678;28;20495;-39
2021/09/16 05:19:27;;;;;;;2.58;1.00;;;15.40;99.90;;;;;;5109939;28;20126;-39
2021/09/16 05:21:53;;;;;;;3.10;1.15;;;15.40;99.90;;;;;;5108629;28;20059;-36
2021/09/16 05:24:21;;;;;;;3.92;1.25;;;15.40;99.90;;;;;;5109243;28;20027;-35
2021/09/16 05:26:47;;;;;;;2.55;1.00;;;15.40;99.90;;;;;;5108678;28;20114;-37
2021/09/16 05:29:13;;;;;;;2.50;1.10;;;15.40;99.90;;;;;;5108348;28;20111;-38
2021/09/16 05:31:39;;;;;;;4.13;0.90;;;15.40;99.90;;;;;;5108392;28;20023;-40
2021/09/16 05:34:05;;;;;;;1.65;0.90;;;15.40;99.90;;;;;;5107625;28;20307;-35
2021/09/16 05:36:31;;;;;;;1.98;0.90;;;15.40;99.90;;;;;;5107729;28;20024;-36
2021/09/16 05:38:56;;;;;;;5.03;1.10;;;15.40;99.90;;;;;;5107705;28;20070;-42
2021/09/16 05:41:23;;;;;;;3.75;1.13;;;15.40;99.90;;;;;;5108272;28;20059;-41
2021/09/16 05:43:49;;;;;;;2.30;1.20;;;15.40;99.90;;;;;;5112931;28;20019;-41
2021/09/16 05:46:15;;;;;;;4.90;1.08;;;15.40;99.90;;;;;;5112874;28;20035;-43
2021/09/16 05:48:41;;;;;;;2.35;0.80;;;15.40;99.90;;;;;;5113003;28;20016;-40
2021/09/16 05:51:06;;;;;;;3.25;1.08;;;15.40;99.90;;;;;;5113031;28;20033;-40
2021/09/16 05:53:32;;;;;;;1.30;0.80;;;15.40;99.90;;;;;;5103220;28;20016;-38
2021/09/16 05:55:58;;;;;;;1.67;0.85;;;15.40;99.90;;;;;;5078924;28;20032;-40
2021/09/16 05:58:24;;;;;;;2.63;1.20;;;15.30;99.90;;;;;;5112375;28;20015;-39
2021/09/16 06:00:49;;;;;;;3.47;1.15;;;15.30;99.90;;;;;;5093531;28;20020;-40
2021/09/16 06:03:15;;;;;;;4.13;0.90;;;15.20;99.90;;;;;;5090892;28;20024;-44
2021/09/16 06:05:41;;;;;;;3.95;1.20;;;15.20;99.90;;;;;;5081609;28;20031;-43
2021/09/16 06:08:06;;;;;;;2.28;0.80;;;15.20;99.90;;;;;;5093025;28;20028;-39
2021/09/16 06:10:32;;;;;;;3.45;0.82;;;15.10;99.90;;;;;;5081158;28;20527;-43
2021/09/16 06:12:57;;;;;;;2.83;0.98;;;15.10;99.90;;;;;;5097759;28;20062;-40
2021/09/16 06:15:23;;;;;;;2.58;1.00;;;15.10;99.90;;;;;;5110635;28;20505;-37
2021/09/16 06:17:49;;;;;;;2.35;1.00;;;15.10;99.90;;;;;;5110258;28;20019;-37
2021/09/16 06:20:15;;;;;;;4.80;0.88;;;15.10;99.90;;;;;;5109357;28;20028;-38
2021/09/16 06:22:40;;;;;;;3.30;1.00;;;15.10;99.90;;;;;;5110040;28;20527;-38
2021/09/16 06:25:07;;;;;;;2.35;0.77;;;15.10;99.90;;;;;;5099110;28;20044;-40
2021/09/16 06:27:32;;;;;;;2.03;0.82;;;15.20;99.90;;;;;;5111811;28;20012;-39
2021/09/16 06:29:59;;;;;;;1.60;0.70;;;15.20;99.90;;;;;;5095779;28;20069;-37
2021/09/16 06:32:24;;;;;;;3.60;1.02;;;15.20;99.90;;;;;;5083712;28;20020;-37
2021/09/16 06:34:50;;;;;;;2.90;0.80;;;15.20;99.90;;;;;;5086806;28;20020;-39
2021/09/16 06:37:15;;;;;;;5.57;0.93;;;15.20;99.90;;;;;;5073621;28;20043;-39
2021/09/16 06:39:41;;;;;;;4.47;1.00;;;15.20;99.90;;;;;;5110507;28;20034;-39
2021/09/16 06:42:06;;;;;;;3.63;1.30;;;15.20;99.90;;;;;;5110986;28;20389;-37
2021/09/16 06:44:32;;;;;;;4.25;1.42;;;15.30;99.90;;;;;;5110423;28;20118;-37
2021/09/16 06:46:57;;;;;;;5.60;1.50;;;15.30;99.90;;;;;;5106839;28;20165;-35
2021/09/16 06:49:23;;;;;;;4.45;1.50;;;15.30;99.90;;;;;;5107160;28;20031;-40
2021/09/16 06:51:48;;;;;;;2.85;1.40;;;15.30;99.90;;;;;;5112027;28;20023;-37
2021/09/16 06:54:14;;;;;;;5.18;1.40;;;15.30;99.90;;;;;;5108969;28;20081;-37
2021/09/16 06:56:39;;;;;;;2.05;1.30;;;15.40;99.90;;;;;;5111133;28;20107;-37
2021/09/16 06:59:05;;;;;;;4.13;1.30;;;15.40;99.90;;;;;;5097933;28;20023;-39
2021/09/16 07:01:33;;;;;;;1.95;1.08;;;15.40;99.90;;;;;;5086050;28;20023;-37
2021/09/16 07:03:58;;;;;;;2.60;1.20;;;15.40;99.90;;;;;;5088891;28;20020;-35
2021/09/16 07:06:27;;;;;;;3.38;1.70;;;15.50;99.90;;;;;;5083273;28;20109;-39
2021/09/16 07:08:52;;;;;;;3.00;1.30;;;15.50;99.90;;;;;;5085886;28;20054;-39
2021/09/16 07:11:19;;;;;;;2.90;1.40;;;15.60;99.90;;;;;;5101037;28;20043;-38
2021/09/16 07:13:44;;;;;;;2.30;1.40;;;15.60;99.90;;;;;;5089476;28;20033;-39
2021/09/16 07:16:10;;;;;;;6.03;1.38;;;15.70;99.90;;;;;;5089064;28;20444;-39
2021/09/16 07:18:36;;;;;;;3.83;1.50;;;15.70;99.90;;;;;;5082655;28;20020;-37
2021/09/16 07:21:02;;;;;;;4.78;1.48;;;15.80;99.90;;;;;;5107501;28;20047;-38
2021/09/16 07:23:30;;;;;;;1.75;1.25;;;15.90;99.90;;;;;;5110984;28;20107;-39
2021/09/16 07:25:59;;;;;;;3.35;1.13;;;16.00;99.90;;;;;;5110843;28;20028;-40
2021/09/16 07:28:24;;;;;;;4.90;1.50;;;16.10;99.90;;;;;;5112027;28;20027;-37
2021/09/16 07:30:50;;;;;;;3.92;1.55;;;16.20;99.90;;;;;;5110016;28;20098;-39
2021/09/16 07:33:15;;;;;;;3.95;1.38;;;16.20;99.90;;;;;;5111116;28;20495;-39
2021/09/16 07:35:41;;;;;;;3.88;1.30;;;16.30;99.90;;;;;;5109077;28;20020;-39
2021/09/16 07:38:06;;;;;;;2.13;1.00;;;16.40;99.90;;;;;;5110839;28;20080;-36
2021/09/16 07:40:32;;;;;;;3.33;1.10;;;16.50;99.90;;;;;;5110989;28;20069;-38
2021/09/16 07:43:04;;;;;;;1.33;1.00;;;16.50;99.90;;;;;;5109861;28;20075;-39
2021/09/16 07:45:30;;;;;;;3.00;1.00;;;16.60;99.90;;;;;;5109012;28;20057;-39
2021/09/16 07:47:55;;;;;;;2.28;1.15;;;16.60;99.90;;;;;;5108914;28;20016;-37
2021/09/16 07:50:21;;;;;;;2.17;1.17;;;16.70;99.90;;;;;;5108198;28;20012;-38
2021/09/16 07:52:47;;;;;;;2.13;1.20;;;16.90;99.90;;;;;;5087262;28;20013;-35
2021/09/16 07:55:12;;;;;;;3.58;1.33;;;17.10;99.90;;;;;;5092039;28;20019;-39
2021/09/16 07:57:38;;;;;;;4.65;1.80;;;17.10;99.90;;;;;;5110120;28;20355;-37
2021/09/16 08:00:04;;;;;;;2.17;1.25;;;17.20;99.90;;;;;;5109746;28;20023;-37
2021/09/16 08:02:30;;;;;;;2.10;1.05;;;17.20;99.90;;;;;;5110143;28;20032;-35
2021/09/16 08:04:58;;;;;;;4.68;1.50;;;17.20;99.90;;;;;;5108781;28;20042;-36
2021/09/16 08:07:26;;;;;;;4.38;1.50;;;17.20;99.90;;;;;;5108531;28;20024;-40
2021/09/16 08:09:51;;;;;;;4.05;1.48;;;17.20;99.90;;;;;;5108700;28;20494;-39
2021/09/16 08:12:17;;;;;;;2.97;1.38;;;17.20;99.90;;;;;;5108456;28;20023;-39
2021/09/16 08:14:45;;;;;;;5.57;1.65;;;17.10;99.90;;;;;;5076766;28;20124;-38
2021/09/16 08:17:11;;;;;;;3.15;1.35;;;17.10;99.90;;;;;;5097314;28;20506;-40
2021/09/16 08:19:39;;;;;;;4.15;1.48;;;17.00;99.90;;;;;;5110724;28;20015;-39
2021/09/16 08:22:08;;;;;;;5.47;1.35;;;17.00;99.90;;;;;;5110167;28;20077;-36
2021/09/16 08:24:33;;;;;;;4.80;1.65;;;17.00;99.90;;;;;;5107798;28;20044;-39
2021/09/16 08:26:59;;;;;;;5.25;1.05;;;17.00;99.90;;;;;;5109637;28;20019;-38
2021/09/16 08:29:24;;;;;;;2.33;1.10;;;17.10;99.90;;;;;;5110241;28;20059;-37
2021/09/16 08:31:50;;;;;;;1.60;0.90;;;17.20;99.90;;;;;;5109910;28;20019;-39
2021/09/16 08:34:18;;;;;;;3.05;0.90;;;17.30;99.90;;;;;;5110121;28;20020;-39
2021/09/16 08:36:43;;;;;;;3.83;1.20;;;17.40;99.90;;;;;;5109676;28;20011;-39
2021/09/16 08:39:09;;;;;;;5.68;1.40;;;17.50;99.90;;;;;;5110472;28;20103;-36
2021/09/16 08:41:36;;;;;;;2.88;1.20;;;17.50;99.90;;;;;;5109622;28;20467;-37
2021/09/16 08:44:03;;;;;;;2.75;1.17;;;17.40;99.90;;;;;;5102544;28;20024;-36
2021/09/16 08:46:29;;;;;;;4.25;1.67;;;17.40;99.90;;;;;;5090737;28;20467;-38
2021/09/16 08:48:54;;;;;;;6.85;1.67;;;17.50;99.90;;;;;;5106892;28;20023;-39
2021/09/16 08:51:20;;;;;;;4.85;1.55;;;17.60;99.90;;;;;;5109700;28;20122;-38
2021/09/16 08:53:47;;;;;;;3.15;1.20;;;17.60;99.90;;;;;;5106417;28;20489;-38
2021/09/16 08:56:13;;;;;;;2.78;1.10;;;17.60;99.90;;;;;;5075359;28;20104;-38
2021/09/16 08:58:42;;;;;;;3.90;1.25;;;17.70;99.90;;;;;;5087060;28;20031;-36
2021/09/16 09:01:07;;;;;;;2.20;0.93;;;17.70;99.90;;;;;;5079352;28;20056;-39
2021/09/16 09:03:33;;;;;;;3.28;1.27;;;17.90;99.90;;;;;;5090958;28;20063;-40
2021/09/16 09:05:58;;;;;;;2.40;1.42;;;18.00;99.90;;;;;;5108108;28;20122;-39
2021/09/16 09:08:31;;;;;;;2.70;1.10;;;18.00;99.90;;;;;;5085248;28;20020;-39
2021/09/16 09:11:01;;;;;;;;;;;18.20;99.90;;;;;;5077842;28;20529;-38
2021/09/16 09:13:34;;;;;;;5.72;1.17;;;18.30;99.90;;;;;;5087592;28;19987;-37
2021/09/16 09:16:05;;;;;;;2.83;1.00;;;18.30;99.90;;;;;;5107395;28;20070;-36
2021/09/16 09:18:44;;;;;;;2.17;1.20;;;18.40;99.90;;;;;;5087274;28;20034;-40
2021/09/16 09:21:11;;;;;;;2.50;1.02;;;18.40;99.90;;;;;;5091347;28;20020;-39
2021/09/16 09:23:38;;;;;;;3.63;1.23;;;18.40;99.90;;;;;;5085844;28;20032;-39
2021/09/16 09:26:27;;;;;;;2.00;0.88;;;18.40;99.90;;;;;;5081520;28;20035;-37
2021/09/16 09:28:55;;;;;;;4.82;1.42;;;18.40;99.90;;;;;;5086499;28;20024;-40
2021/09/16 09:31:24;;;;;;;5.18;1.33;;;18.30;99.90;;;;;;5113548;28;20041;-37
2021/09/16 09:33:50;;;;;;;2.90;1.13;;;18.40;99.90;;;;;;5112010;28;20072;-38
2021/09/16 09:36:21;;;;;;;4.28;1.00;;;18.40;99.90;;;;;;5103861;28;20630;-37
2021/09/16 09:38:59;;;;;;;3.60;1.30;;;18.50;99.90;;;;;;5081957;28;20032;-39
2021/09/16 09:41:31;;;;;;;1.98;0.90;;;18.70;99.90;;;;;;5113870;28;20043;-40
2021/09/16 09:44:03;;;;;;;2.38;1.05;;;18.80;99.90;;;;;;5112454;28;20028;-40
2021/09/16 09:46:36;;;;;;;3.85;1.10;;;19.00;99.90;;;;;;5104224;28;20120;-39
2021/09/16 09:49:05;;;;;;;2.83;1.00;;;19.00;99.90;;;;;;5099323;28;20044;-39
2021/09/16 09:51:51;;;;;;;3.30;1.02;;;19.10;99.80;;;;;;5111406;28;20486;-39
2021/09/16 09:54:34;;;;;;;2.22;0.95;;;19.10;99.30;;;;;;5113201;28;20020;-39
2021/09/16 09:57:08;;;;;;;3.65;1.80;;;19.00;99.40;;;;;;5091155;28;20042;-40
2021/09/16 09:59:49;;;;;;;1.80;1.02;;;19.00;99.60;;;;;;5111919;28;20028;-39
2021/09/16 10:02:16;;;;;;;5.28;1.30;;;19.00;99.60;;;;;;5083228;28;20035;-37
2021/09/16 10:04:43;;;;;;;2.70;1.13;;;19.10;99.30;;;;;;5081221;28;20058;-38
2021/09/16 10:07:08;;;;;;;1.75;1.30;;;19.10;99.50;;;;;;5109713;28;20424;-40
2021/09/16 10:09:34;;;;;;;4.05;1.30;;;19.20;99.50;;;;;;5081390;28;20024;-39
2021/09/16 10:12:00;;;;;;;3.92;1.50;;;19.30;99.40;;;;;;5098113;28;20059;-37
2021/09/16 10:14:26;;;;;;;2.47;1.20;;;19.40;99.50;;;;;;5088236;28;20157;-38
2021/09/16 10:16:51;;;;;;;5.32;1.33;;;19.40;98.80;;;;;;5110028;28;20123;-37
2021/09/16 10:19:17;;;;;;;5.45;1.70;;;19.40;98.10;;;;;;5101584;28;20028;-39
2021/09/16 10:21:43;;;;;;;4.28;1.42;;;19.40;98.50;;;;;;5103926;28;20024;-37
2021/09/16 10:24:13;;;;;;;3.08;1.05;;;19.40;97.70;;;;;;5111528;28;20015;-34
2021/09/16 10:26:43;;;;;;;3.13;1.27;;;19.30;98.00;;;;;;5108732;28;20015;-37
2021/09/16 10:29:27;;;;;;;2.10;1.00;;;19.30;97.90;;;;;;5109004;28;20031;-37
2021/09/16 10:32:13;;;;;;;5.25;1.00;;;19.40;98.10;;;;;;5110186;28;20023;-41
2021/09/16 10:34:56;;;;;;;2.72;1.30;;;19.40;97.90;;;;;;5069531;28;20388;-39
2021/09/16 10:37:24;;;;;;;5.10;1.27;;;19.50;97.20;;;;;;5106401;28;20034;-39
2021/09/16 10:39:51;;;;;;;2.33;1.10;;;19.40;96.80;;;;;;5110894;28;20363;-38
2021/09/16 10:42:17;;;;;;;2.47;1.25;;;19.40;97.00;;;;;;5112133;28;20035;-39
2021/09/16 10:44:44;;;;;;;3.28;1.23;;;19.50;97.30;;;;;;5111142;28;20053;-37
2021/09/16 10:47:17;;;;;;;3.70;1.52;;;19.50;97.00;;;;;;5111013;28;20020;-39
2021/09/16 10:49:43;;;;;;;2.63;1.23;;;19.50;96.70;;;;;;5112235;28;20043;-37
2021/09/16 10:52:09;;;;;;;4.40;1.30;;;19.50;97.10;;;;;;5111673;28;20020;-36
2021/09/16 10:54:45;;;;;;;2.42;1.00;;;19.60;96.90;;;;;;5111653;28;20077;-38
2021/09/16 10:57:14;;;;;;;2.72;1.15;;;19.70;97.40;;;;;;5112081;28;20076;-32
2021/09/16 10:59:49;;;;;;;4.40;1.48;;;19.80;97.10;;;;;;5112169;28;20031;-39
2021/09/16 11:02:16;;;;;;;2.95;1.00;;;19.90;96.40;;;;;;5111409;28;20475;-38
2021/09/16 11:05:10;;;;;;;2.15;1.30;;;20.00;96.60;;;;;;5111795;28;20127;-39
2021/09/16 11:07:37;;;;;;;4.13;1.33;;;20.00;96.00;;;;;;5110989;28;20518;-38
2021/09/16 11:10:15;;;;;;;4.47;1.13;;;20.20;96.20;;;;;;5109615;28;20024;-39
2021/09/16 11:12:49;;;;;;;2.28;1.27;;;20.30;96.20;;;;;;5110155;28;20012;-38
2021/09/16 11:15:17;;;;;;;2.88;1.20;;;20.40;96.10;;;;;;5100838;28;20051;-39
2021/09/16 11:17:43;;;;;;;3.22;1.85;;;20.50;95.60;;;;;;5088162;28;20367;-36
2021/09/16 11:20:14;;;;;;;3.58;1.20;;;20.60;95.30;;;;;;5109873;28;20475;-37
2021/09/16 11:22:40;;;;;;;1.25;0.80;;;20.60;95.70;;;;;;5109392;28;20023;-39
2021/09/16 11:25:07;;;;;;;2.83;1.13;;;20.70;95.90;;;;;;5110809;28;20571;-39
2021/09/16 11:27:36;;;;;;;2.58;1.30;;;20.70;95.80;;;;;;5111485;28;20008;-37
2021/09/16 11:30:04;;;;;;;3.72;1.30;;;20.80;95.10;;;;;;5110835;28;20073;-38
2021/09/16 11:32:36;;;;;;;4.57;1.30;;;20.70;95.00;;;;;;5111322;28;20024;-40
2021/09/16 11:35:06;;;;;;;2.35;1.17;;;20.70;95.30;;;;;;5111515;28;20038;-38
2021/09/16 11:37:41;;;;;;;3.83;1.20;;;20.50;95.40;;;;;;5096194;28;20013;-36
2021/09/16 11:40:07;;;;;;;2.25;1.40;;;20.50;95.60;;;;;;5103837;28;20566;-38
2021/09/16 11:42:34;;;;;;;4.82;1.00;;;20.50;95.70;;;;;;5109766;28;20119;-37
2021/09/16 11:45:02;;;;;;;4.07;1.48;;;20.50;95.70;;;;;;5107003;28;20067;-40
2021/09/16 11:47:29;;;;;;;3.65;1.80;;;20.40;95.00;;;;;;5110916;28;20111;-39
2021/09/16 11:49:57;;;;;;;2.80;1.52;;;20.30;95.40;;;;;;5110646;28;20024;-40
2021/09/16 11:52:23;;;;;;;3.05;1.52;;;20.30;95.70;;;;;;5110489;28;20023;-38
2021/09/16 11:55:08;;;;;;;2.22;1.38;;;20.30;95.90;;;;;;5102105;28;20068;-41
2021/09/16 11:58:12;;;;;;;2.63;1.38;;;20.30;96.00;;;;;;5085864;28;20034;-39
2021/09/16 12:00:55;;;;;;;3.70;1.60;;;20.40;96.20;;;;;;5109792;28;20032;-33
2021/09/16 12:03:33;;;;;;;2.85;1.42;;;20.40;96.30;;;;;;5110954;28;20028;-33
2021/09/16 12:06:00;;;;;;;3.55;1.50;;;20.40;96.40;;;;;;5104674;28;20035;-38
2021/09/16 12:08:27;;;;;;;2.50;1.30;;;20.40;96.20;;;;;;5111570;28;20023;-40
2021/09/16 12:10:54;;;;;;;3.10;1.50;;;20.40;96.10;;;;;;5110304;28;20049;-39
2021/09/16 12:13:24;;;;;;;3.90;1.65;;;20.60;95.60;;;;;;5109737;28;20060;-39
2021/09/16 12:16:00;;;;;;;1.48;1.20;;;20.60;95.90;;;;;;5109500;28;20044;-40
2021/09/16 12:18:25;;;;;;;1.55;1.17;;;20.80;95.90;;;;;;5108914;28;20542;-40
2021/09/16 12:20:52;;;;;;;3.08;1.40;;;20.80;95.50;;;;;;5108207;28;20019;-38
2021/09/16 12:23:20;;;;;;;3.60;1.20;;;20.90;94.90;;;;;;5109700;28;20015;-38
2021/09/16 12:25:50;;;;;;;6.38;2.08;;;20.80;94.30;;;;;;5109015;28;20049;-36
2021/09/16 12:28:16;;;;;;;3.30;1.00;;;20.70;94.80;;;;;;5108589;28;20026;-39
2021/09/16 12:30:42;;;;;;;2.65;1.10;;;20.60;94.80;;;;;;5108916;28;20015;-39
2021/09/16 12:33:31;;;;;;;4.10;1.35;;;20.40;95.00;;;;;;5095589;28;20028;-40
2021/09/16 12:36:12;;;;;;;3.75;1.15;;;20.30;95.60;;;;;;5103718;28;20034;-36
2021/09/16 12:38:39;;;;;;;2.10;1.48;;;20.40;95.80;;;;;;5110104;28;20077;-39
2021/09/16 12:41:22;;;;;;;2.33;1.20;;;20.50;95.10;;;;;;5108855;28;20016;-35
2021/09/16 12:44:00;;;;;;;2.25;1.10;;;20.60;94.90;;;;;;5110029;28;20053;-39
2021/09/16 12:46:26;;;;;;;1.90;1.00;;;20.70;95.10;;;;;;5110346;28;20059;-38
2021/09/16 12:48:52;;;;;;;4.13;1.70;;;20.70;95.10;;;;;;5108313;28;20014;-37